createdAt,value
2023-03-05T00:02:26.642Z,100252.45
2023-03-05T00:04:54.734Z,100249.60
2023-03-05T00:07:23.176Z,100248.88
2023-03-05T00:09:50.792Z,100252.56
2023-03-05T00:12:20.650Z,100243.87
2023-03-05T00:14:49.168Z,100246.59
2023-03-05T00:17:17.054Z,100246.69
2023-03-05T00:19:44.362Z,100243.92
2023-03-05T00:22:12.795Z,100236.27
2023-03-05T00:24:39.880Z,100232.55
2023-03-05T00:27:08.542Z,100229.48
2023-03-05T00:29:36.674Z,100229.09
2023-03-05T00:32:05.803Z,100225.69
2023-03-05T00:34:33.851Z,100218.23
2023-03-05T00:37:03.258Z,100215.09
2023-03-05T00:39:31.574Z,100216.98
2023-03-05T00:42:00.875Z,100215.49
2023-03-05T00:44:29.959Z,100215.03
2023-03-05T00:46:58.348Z,100212.75
2023-03-05T00:49:26.588Z,100208.83
2023-03-05T00:51:55.735Z,100207.35
2023-03-05T00:54:25.218Z,100203.13
2023-03-05T00:56:53.203Z,100201.64
2023-03-05T00:59:21.144Z,100196.80
2023-03-05T01:01:49.404Z,100193.25
2023-03-05T01:04:17.593Z,100187.80
2023-03-05T01:06:46.313Z,100184.79
2023-03-05T01:09:14.224Z,100180.17
2023-03-05T01:11:41.458Z,100182.04
2023-03-05T01:14:10.805Z,100174.67
2023-03-05T01:16:39.383Z,100171.52
2023-03-05T01:19:07.874Z,100170.07
2023-03-05T01:21:36.723Z,100170.34
2023-03-05T01:24:06.080Z,100172.67
2023-03-05T01:26:34.634Z,100167.07
2023-03-05T01:29:02.680Z,100166.41
2023-03-05T01:31:30.982Z,100162.98
2023-03-05T01:33:59.763Z,100159.55
2023-03-05T01:36:27.535Z,100156.08
2023-03-05T01:38:54.698Z,100156.27
2023-03-05T01:41:22.101Z,100153.16
2023-03-05T01:43:52.427Z,100157.27
2023-03-05T01:46:34.460Z,100156.32
2023-03-05T01:49:24.342Z,100154.59
2023-03-05T01:52:17.393Z,100152.10
2023-03-05T01:54:50.442Z,100148.89
2023-03-05T01:57:35.409Z,100147.75
2023-03-05T02:00:13.210Z,100147.65
2023-03-05T02:02:45.132Z,100145.84
2023-03-05T02:05:18.057Z,100143.19
2023-03-05T02:08:00.031Z,100138.31
2023-03-05T02:10:37.097Z,100141.71
2023-03-05T02:13:09.422Z,100137.42
2023-03-05T02:15:39.311Z,100134.61
2023-03-05T02:18:09.411Z,100128.16
2023-03-05T02:20:47.534Z,100126.09
2023-03-05T02:23:18.393Z,100127.35
2023-03-05T02:25:46.708Z,100126.80
2023-03-05T02:28:23.477Z,100119.73
2023-03-05T02:30:52.855Z,100115.77
2023-03-05T02:33:22.122Z,100114.95
2023-03-05T02:35:50.285Z,100110.67
2023-03-05T02:38:21.595Z,100101.49
2023-03-05T02:40:48.704Z,100088.81
2023-03-05T02:43:16.322Z,100083.15
2023-03-05T02:45:43.703Z,100080.43
2023-03-05T02:48:12.969Z,100077.11
2023-03-05T02:50:42.511Z,100068.66
2023-03-05T02:53:10.970Z,100069.14
2023-03-05T02:55:39.899Z,100060.70
2023-03-05T02:58:07.805Z,100057.19
2023-03-05T03:00:35.161Z,100052.70
2023-03-05T03:03:02.811Z,100052.65
2023-03-05T03:05:31.324Z,100049.11
2023-03-05T03:07:59.035Z,100043.80
2023-03-05T03:10:26.892Z,100041.06
2023-03-05T03:12:55.193Z,100039.39
2023-03-05T03:15:22.996Z,100038.02
2023-03-05T03:17:50.759Z,100038.37
2023-03-05T03:20:18.538Z,100034.75
2023-03-05T03:22:47.664Z,100028.45
2023-03-05T03:25:18.673Z,100027.92
2023-03-05T03:27:46.547Z,100025.34
2023-03-05T03:30:15.581Z,100022.52
2023-03-05T03:32:44.076Z,100020.29
2023-03-05T03:35:12.535Z,100015.44
2023-03-05T03:37:40.697Z,100016.61
2023-03-05T03:40:09.244Z,100009.48
2023-03-05T03:42:37.107Z,100009.77
2023-03-05T03:45:04.610Z,100008.08
2023-03-05T03:47:31.958Z,100002.30
2023-03-05T03:49:59.599Z,100001.02
2023-03-05T03:52:27.386Z,99994.48
2023-03-05T03:55:01.028Z,99987.06
2023-03-05T03:57:30.062Z,99982.26
2023-03-05T03:59:57.213Z,99978.88
2023-03-05T04:02:26.140Z,99972.75
2023-03-05T04:04:54.624Z,99967.58
2023-03-05T04:07:23.135Z,99964.96
2023-03-05T04:09:50.572Z,99963.27
2023-03-05T04:12:19.025Z,99958.95
2023-03-05T04:14:47.923Z,99957.70
2023-03-05T04:17:16.597Z,99950.66
2023-03-05T04:19:44.436Z,99945.20
2023-03-05T04:22:15.061Z,99941.11
2023-03-05T04:24:46.789Z,99938.00
2023-03-05T04:27:14.632Z,99934.10
2023-03-05T04:29:42.340Z,99932.08
2023-03-05T04:32:09.760Z,99927.91
2023-03-05T04:34:38.013Z,99923.70
2023-03-05T04:37:07.758Z,99923.64
2023-03-05T04:39:36.080Z,99918.77
2023-03-05T04:42:06.223Z,99917.34
2023-03-05T04:44:34.689Z,99914.30
2023-03-05T04:47:02.017Z,99913.07
2023-03-05T04:49:31.762Z,99904.59
2023-03-05T04:52:02.507Z,99897.76
2023-03-05T04:54:37.589Z,99899.99
2023-03-05T04:57:28.431Z,99893.06
2023-03-05T04:59:56.217Z,99889.70
2023-03-05T05:02:34.659Z,99888.16
2023-03-05T05:05:07.102Z,99884.42
2023-03-05T05:07:45.785Z,99887.31
2023-03-05T05:10:31.334Z,99886.85
2023-03-05T05:13:19.359Z,99883.96
2023-03-05T05:19:13.367Z,99886.06
2023-03-05T05:22:30.054Z,99886.36
2023-03-05T05:25:04.178Z,99890.73
2023-03-05T05:27:51.007Z,99888.30
2023-03-05T05:44:12.668Z,99895.33
2023-03-05T06:54:38.743Z,99849.33
2023-03-05T08:28:04.335Z,99812.96
2023-03-05T08:30:37.814Z,99811.31
2023-03-05T08:33:27.004Z,99815.27
2023-03-05T08:35:55.758Z,99808.64
2023-03-05T08:38:23.331Z,99811.76
2023-03-05T08:40:58.100Z,99812.79
2023-03-05T08:43:25.235Z,99806.26
2023-03-05T08:45:53.325Z,99803.23
2023-03-05T08:48:21.005Z,99798.95
2023-03-05T08:50:51.091Z,99798.21
2023-03-05T08:53:27.947Z,99796.23
2023-03-05T08:55:59.274Z,99797.30
2023-03-05T08:58:30.400Z,99797.80
2023-03-05T09:01:17.295Z,99801.83
2023-03-05T09:03:47.910Z,99800.83
2023-03-05T09:06:36.930Z,99798.61
2023-03-05T09:09:09.577Z,99793.73
2023-03-05T09:11:45.920Z,99793.14
2023-03-05T09:14:29.979Z,99794.59
2023-03-05T09:20:36.633Z,99791.33
2023-03-05T09:27:45.970Z,99801.90
2023-03-05T09:31:25.273Z,99800.55
2023-03-05T10:01:08.745Z,99784.42
2023-03-05T10:03:56.495Z,99778.04
2023-03-05T10:06:56.422Z,99774.52
2023-03-05T10:10:00.314Z,99770.79
2023-03-05T10:16:08.187Z,99763.96
2023-03-05T10:19:22.415Z,99770.05
2023-03-05T10:49:48.686Z,99756.60
2023-03-05T10:56:44.095Z,99766.80
2023-03-05T10:59:27.195Z,99765.54
2023-03-05T11:09:43.384Z,99764.68
2023-03-05T11:16:59.593Z,99769.91
2023-03-05T11:24:30.747Z,99766.88
2023-03-05T11:46:18.471Z,99738.53
2023-03-05T11:49:38.115Z,99734.69
2023-03-05T12:15:38.248Z,99718.95
2023-03-05T12:19:18.487Z,99709.83
2023-03-05T12:33:11.731Z,99722.02
2023-03-05T12:39:55.151Z,99738.41
2023-03-05T12:54:39.019Z,99738.80
2023-03-05T14:00:33.892Z,99718.88
2023-03-05T14:06:33.673Z,99696.55
2023-03-05T14:09:58.799Z,99704.04
2023-03-05T14:41:23.166Z,99691.01
2023-03-05T14:45:47.500Z,99691.13
2023-03-05T14:50:04.026Z,99684.80
2023-03-05T14:53:34.209Z,99686.24
2023-03-05T14:57:49.053Z,99680.20
2023-03-05T15:01:23.846Z,99676.63
2023-03-05T15:05:49.521Z,99680.52
2023-03-05T15:09:42.137Z,99672.34
2023-03-05T15:13:21.723Z,99670.66
2023-03-05T15:17:36.632Z,99670.73
2023-03-05T15:21:27.899Z,99670.18
2023-03-05T15:25:13.511Z,99671.31
2023-03-05T15:29:00.468Z,99672.61
2023-03-05T15:33:00.265Z,99675.46
2023-03-05T15:37:18.138Z,99673.59
2023-03-05T15:41:47.849Z,99669.93
2023-03-05T15:45:35.506Z,99666.92
2023-03-05T15:48:54.194Z,99670.05
2023-03-05T15:57:27.328Z,99663.30
2023-03-05T16:01:33.268Z,99663.10
2023-03-05T16:05:40.926Z,99667.69
2023-03-05T16:09:54.431Z,99668.35
2023-03-05T16:13:54.723Z,99666.23
2023-03-05T16:18:29.306Z,99662.45
2023-03-05T16:26:06.822Z,99663.51
2023-03-05T16:30:06.861Z,99658.68
2023-03-05T16:33:52.375Z,99654.95
2023-03-05T16:37:45.946Z,99656.05
2023-03-05T16:41:48.586Z,99652.64
2023-03-05T16:44:59.906Z,99656.35
2023-03-05T16:48:50.706Z,99657.21
2023-03-05T16:52:28.393Z,99659.72
2023-03-05T16:56:46.803Z,99662.75
2023-03-05T17:01:02.914Z,99662.60
2023-03-05T17:04:23.068Z,99668.00
2023-03-05T17:08:03.863Z,99670.95
2023-03-05T17:12:17.601Z,99675.98
2023-03-05T17:15:45.709Z,99681.83
2023-03-05T17:18:37.912Z,99683.33
2023-03-05T17:21:09.208Z,99685.77
2023-03-05T17:24:39.571Z,99683.11
2023-03-05T17:27:32.216Z,99683.92
2023-03-05T17:30:22.012Z,99684.75
2023-03-05T17:32:57.230Z,99680.89
2023-03-05T17:35:48.661Z,99682.19
2023-03-05T17:38:24.686Z,99681.48
2023-03-05T17:41:00.155Z,99683.36
2023-03-05T17:43:30.992Z,99683.56
2023-03-05T17:46:18.852Z,99679.90
2023-03-05T17:48:51.000Z,99676.30
2023-03-05T17:51:40.516Z,99679.48
2023-03-05T17:54:14.410Z,99679.79
2023-03-05T17:56:47.814Z,99678.27
2023-03-05T17:59:18.045Z,99677.14
2023-03-05T18:01:47.744Z,99676.36
2023-03-05T18:04:17.981Z,99678.08
2023-03-05T18:06:48.172Z,99676.98
2023-03-05T18:09:38.205Z,99673.30
2023-03-05T18:12:10.223Z,99673.17
2023-03-05T18:14:40.806Z,99679.58
2023-03-05T18:17:15.467Z,99678.02
2023-03-05T18:19:43.828Z,99676.14
2023-03-05T18:22:18.815Z,99675.52
2023-03-05T18:24:47.102Z,99674.00
2023-03-05T18:27:19.791Z,99674.80
2023-03-05T18:29:56.851Z,99672.40
2023-03-05T18:32:26.125Z,99669.23
2023-03-05T18:34:56.054Z,99669.27
2023-03-05T18:37:27.186Z,99668.33
2023-03-05T18:39:57.597Z,99666.48
2023-03-05T18:42:26.566Z,99668.38
2023-03-05T18:44:56.909Z,99664.97
2023-03-05T18:47:24.697Z,99663.27
2023-03-05T18:49:56.035Z,99663.23
2023-03-05T18:52:26.668Z,99659.95
2023-03-05T18:54:57.491Z,99661.91
2023-03-05T18:57:28.902Z,99663.47
2023-03-05T18:59:58.039Z,99664.98
2023-03-05T19:02:29.737Z,99666.48
2023-03-05T19:05:04.889Z,99661.50
2023-03-05T19:07:38.175Z,99654.21
2023-03-05T19:10:10.265Z,99649.03
2023-03-05T19:12:55.991Z,99646.10
2023-03-05T19:15:26.384Z,99639.44
2023-03-05T19:18:00.590Z,99637.36
2023-03-05T19:20:35.673Z,99638.71
2023-03-05T19:23:31.504Z,99637.66
2023-03-05T19:26:23.865Z,99637.23
2023-03-05T19:29:25.645Z,99637.02
2023-03-05T19:32:22.952Z,99643.11
2023-03-05T19:35:44.036Z,99653.33
2023-03-05T19:39:04.998Z,99655.39
2023-03-05T19:51:25.990Z,99657.13
2023-03-05T19:54:57.066Z,99660.73
2023-03-05T19:58:54.261Z,99663.99
2023-03-05T20:07:20.802Z,99656.34
2023-03-05T20:11:53.833Z,99655.36
2023-03-05T20:16:07.056Z,99655.95
2023-03-05T20:20:46.595Z,99651.94
2023-03-05T20:25:23.807Z,99646.60
2023-03-05T20:29:54.178Z,99646.95
2023-03-05T20:33:17.259Z,99645.16
2023-03-05T20:37:24.109Z,99644.73
2023-03-05T20:45:39.805Z,99644.56
2023-03-05T20:49:41.353Z,99643.18
2023-03-05T20:53:50.910Z,99636.84
2023-03-05T20:58:12.807Z,99629.27
2023-03-05T21:02:28.269Z,99637.09
2023-03-05T21:06:51.202Z,99633.32
2023-03-05T21:10:39.860Z,99626.38
2023-03-05T21:15:02.022Z,99624.80
2023-03-05T21:19:19.679Z,99622.49
2023-03-05T21:23:28.920Z,99624.02
2023-03-05T21:27:21.430Z,99620.72
2023-03-05T21:30:50.419Z,99619.48
2023-03-05T21:35:19.172Z,99617.05
2023-03-05T21:39:03.036Z,99623.11
2023-03-05T21:43:13.796Z,99621.05
2023-03-05T21:46:37.156Z,99617.30
2023-03-05T21:50:36.438Z,99615.07
2023-03-05T21:54:11.102Z,99613.23
2023-03-05T21:58:02.419Z,99612.96
2023-03-05T22:01:34.083Z,99606.40
2023-03-05T22:04:29.864Z,99604.61
2023-03-05T22:07:00.330Z,99603.42
2023-03-05T22:10:05.120Z,99604.05
2023-03-05T22:13:13.805Z,99601.52
2023-03-05T22:15:59.355Z,99597.91
2023-03-05T22:18:53.743Z,99596.13
2023-03-05T22:21:27.952Z,99594.38
2023-03-05T22:24:20.381Z,99594.62
2023-03-05T22:26:52.515Z,99586.98
2023-03-05T22:29:44.099Z,99583.52
2023-03-05T22:32:38.390Z,99580.90
2023-03-05T22:35:13.605Z,99583.38
2023-03-05T22:37:47.135Z,99578.80
2023-03-05T22:40:27.112Z,99576.67
2023-03-05T22:42:57.949Z,99575.87
2023-03-05T22:45:32.294Z,99573.13
2023-03-05T22:48:04.455Z,99575.98
2023-03-05T22:50:33.962Z,99570.61
2023-03-05T22:53:21.920Z,99574.46
2023-03-05T22:55:50.214Z,99571.71
2023-03-05T22:58:19.463Z,99568.23
2023-03-05T23:00:51.969Z,99569.26
2023-03-05T23:03:20.376Z,99564.69
2023-03-05T23:05:51.705Z,99561.26
2023-03-05T23:08:23.046Z,99560.38
2023-03-05T23:10:52.069Z,99557.83
2023-03-05T23:13:22.216Z,99559.23
2023-03-05T23:15:50.642Z,99559.05
2023-03-05T23:18:19.090Z,99558.52
2023-03-05T23:20:49.964Z,99554.66
2023-03-05T23:23:18.817Z,99553.94
2023-03-05T23:25:50.887Z,99553.82
2023-03-05T23:28:23.544Z,99552.52
2023-03-05T23:30:51.785Z,99552.52
2023-03-05T23:33:24.339Z,99551.18
2023-03-05T23:35:59.564Z,99551.55
2023-03-05T23:38:29.852Z,99550.22
2023-03-05T23:41:03.430Z,99548.84
2023-03-05T23:43:31.013Z,99548.64
2023-03-05T23:46:01.579Z,99546.76
2023-03-05T23:48:30.880Z,99541.43
2023-03-05T23:50:58.541Z,99540.19
2023-03-05T23:53:32.101Z,99541.80
2023-03-05T23:55:59.715Z,99542.05
2023-03-05T23:58:27.331Z,99541.63
